Time;durP1;ratioP1;P1;durP2;ratioP2;P2;SDS_P1;SDS_P2;PMS_P1;PMS_P2;Temp;Humidity;BMP_temperature;BMP_pressure;BME280_temperature;BME280_humidity;BME280_pressure;Samples;Min_cycle;Max_cycle;Signal;HPM_P1;HPM_P2
2022/03/02 00:01:59;;;;;;;31.93;18.30;;;;;;;1.48;77.25;100925.55;1711703;83;22164;-81
2022/03/02 00:04:26;;;;;;;33.80;18.00;;;;;;;1.48;77.30;100917.73;1710964;83;21009;-81
2022/03/02 00:06:53;;;;;;;29.85;16.50;;;;;;;1.48;77.32;100911.68;1701236;83;21484;-81
2022/03/02 00:09:20;;;;;;;31.40;16.67;;;;;;;1.48;77.35;100912.53;1713275;83;20973;-81
2022/03/02 00:11:48;;;;;;;30.30;15.90;;;;;;;1.46;77.41;100904.38;1713409;82;21017;-81
2022/03/02 00:14:15;;;;;;;32.08;17.48;;;;;;;1.43;77.46;100897.05;1713255;83;22253;-81
2022/03/02 00:16:43;;;;;;;34.65;18.17;;;;;;;1.41;77.56;100896.70;1712962;83;21016;-82
2022/03/02 00:19:10;;;;;;;29.77;15.68;;;;;;;1.41;77.61;100901.91;1711264;83;20969;-81
2022/03/02 00:21:37;;;;;;;31.12;16.17;;;;;;;1.42;77.69;100899.70;1711306;83;21017;-81
2022/03/02 00:24:04;;;;;;;30.80;16.37;;;;;;;1.41;77.75;100901.45;1712087;82;20970;-81
2022/03/02 00:26:32;;;;;;;30.92;17.62;;;;;;;1.40;77.80;100901.52;1711260;82;22226;-81
2022/03/02 00:28:59;;;;;;;30.57;16.52;;;;;;;1.40;77.88;100898.91;1710690;84;21034;-81
2022/03/02 00:31:26;;;;;;;30.40;17.37;;;;;;;1.40;77.92;100898.91;1710976;84;20993;-81
2022/03/02 00:33:53;;;;;;;32.28;16.60;;;;;;;1.41;77.95;100883.69;1710744;84;21021;-81
2022/03/02 00:36:20;;;;;;;31.48;16.70;;;;;;;1.42;77.98;100884.09;1711030;82;20958;-81
2022/03/02 00:38:47;;;;;;;32.58;17.30;;;;;;;1.42;78.03;100873.22;1710772;84;22532;-81
2022/03/02 00:41:14;;;;;;;27.80;15.53;;;;;;;1.42;78.08;100877.58;1711378;83;20990;-81
2022/03/02 00:43:41;;;;;;;32.42;16.73;;;;;;;1.43;78.13;100879.28;1710893;83;21350;-81
2022/03/02 00:46:09;;;;;;;31.30;16.85;;;;;;;1.42;78.16;100871.08;1710932;84;20982;-81
2022/03/02 00:48:37;;;;;;;33.80;17.65;;;;;;;1.42;78.18;100871.08;1702812;83;21001;-81
2022/03/02 00:51:05;;;;;;;29.42;16.37;;;;;;;1.40;78.25;100870.28;1713186;83;21884;-82
2022/03/02 00:53:32;;;;;;;33.80;16.73;;;;;;;1.39;78.34;100868.58;1712933;83;20998;-82
2022/03/02 00:55:59;;;;;;;31.90;17.12;;;;;;;1.41;78.37;100868.92;1710923;82;21010;-82
2022/03/02 00:58:25;;;;;;;31.85;16.90;;;;;;;1.43;78.39;100865.81;1710607;83;21454;-81
2022/03/02 01:00:52;;;;;;;34.55;17.35;;;;;;;1.46;78.40;100862.28;1712712;83;20962;-81
2022/03/02 01:03:19;;;;;;;32.95;17.48;;;;;;;1.47;78.41;100863.97;1711057;84;22170;-82
2022/03/02 01:05:46;;;;;;;36.95;18.17;;;;;;;1.46;78.44;100854.47;1711747;83;21009;-81
2022/03/02 01:08:14;;;;;;;33.85;17.55;;;;;;;1.43;78.47;100859.75;1711411;82;20998;-82
2022/03/02 01:10:42;;;;;;;33.95;17.12;;;;;;;1.44;78.53;100856.25;1710815;83;20962;-81
2022/03/02 01:13:09;;;;;;;37.03;17.77;;;;;;;1.46;78.56;100852.32;1712876;83;20982;-82
2022/03/02 01:15:36;;;;;;;36.20;17.87;;;;;;;1.46;78.54;100853.62;1711571;83;21840;-82
2022/03/02 01:18:03;;;;;;;37.60;18.70;;;;;;;1.46;78.60;100847.11;1710728;83;20955;-82
2022/03/02 01:20:30;;;;;;;36.68;17.62;;;;;;;1.44;78.60;100839.33;1710940;82;20970;-81
2022/03/02 01:22:56;;;;;;;38.25;18.15;;;;;;;1.44;78.66;100836.73;1711654;83;21072;-82
2022/03/02 01:25:24;;;;;;;38.70;18.60;;;;;;;1.47;78.69;100839.70;1711681;83;20965;-82
2022/03/02 01:27:51;;;;;;;38.85;18.82;;;;;;;1.46;78.70;100837.55;1710993;84;21803;-82
2022/03/02 01:30:18;;;;;;;41.18;19.05;;;;;;;1.44;78.72;100833.67;1711223;82;20970;-82
2022/03/02 01:32:45;;;;;;;37.38;16.93;;;;;;;1.46;78.74;100831.04;1711094;82;21049;-82
2022/03/02 01:35:14;;;;;;;35.98;17.42;;;;;;;1.49;78.74;100830.08;1711142;84;20966;-81
2022/03/02 01:37:41;;;;;;;42.13;18.90;;;;;;;1.48;78.74;100826.63;1710713;82;20942;-81
2022/03/02 01:40:09;;;;;;;40.23;17.52;;;;;;;1.48;78.77;100829.69;1710953;84;21794;-82
2022/03/02 01:42:38;;;;;;;38.38;17.90;;;;;;;1.47;78.78;100826.23;1711775;83;21009;-82
2022/03/02 01:45:06;;;;;;;39.65;17.45;;;;;;;1.44;78.82;100821.95;1711515;83;21088;-82
2022/03/02 01:47:33;;;;;;;39.15;18.42;;;;;;;1.42;78.89;100819.86;1712322;83;21276;-82
2022/03/02 01:50:01;;;;;;;41.33;18.82;;;;;;;1.44;78.93;100814.15;1711208;83;20946;-82
2022/03/02 01:52:28;;;;;;;38.48;16.37;;;;;;;1.44;79.00;100808.09;1710661;84;21817;-81
2022/03/02 01:54:55;;;;;;;35.68;17.12;;;;;;;1.44;79.10;100803.73;1710736;83;21512;-82
2022/03/02 01:57:22;;;;;;;42.50;19.32;;;;;;;1.43;79.09;100803.80;1711736;82;20958;-82
2022/03/02 01:59:49;;;;;;;40.73;19.02;;;;;;;1.41;79.16;100806.45;1712924;83;21374;-82
2022/03/02 02:02:16;;;;;;;42.95;18.60;;;;;;;1.40;79.22;100797.41;1712685;83;21063;-82
2022/03/02 02:04:43;;;;;;;39.33;18.00;;;;;;;1.40;79.27;100804.76;1710758;84;21748;-81
2022/03/02 02:07:10;;;;;;;42.88;19.15;;;;;;;1.41;79.34;100800.41;1710612;84;20952;-82
2022/03/02 02:09:38;;;;;;;42.10;18.80;;;;;;;1.41;79.38;100798.65;1711338;83;21053;-81
2022/03/02 02:12:05;;;;;;;38.25;17.55;;;;;;;1.43;79.47;100792.08;1711957;82;21440;-82
2022/03/02 02:14:32;;;;;;;40.83;18.85;;;;;;;1.43;79.52;100797.29;1710957;84;21433;-81
2022/03/02 02:16:59;;;;;;;42.93;18.30;;;;;;;1.42;79.58;100798.19;1711595;82;21818;-82
2022/03/02 02:19:26;;;;;;;43.95;19.65;;;;;;;1.38;79.67;100789.66;1710999;83;20937;-81
2022/03/02 02:21:53;;;;;;;43.95;18.48;;;;;;;1.39;79.72;100791.80;1711953;83;21005;-82
2022/03/02 02:24:20;;;;;;;44.60;19.15;;;;;;;1.38;79.75;100793.56;1710863;83;20965;-81
2022/03/02 02:26:47;;;;;;;49.70;20.30;;;;;;;1.39;79.84;100786.59;1711978;83;21029;-82
2022/03/02 02:29:15;;;;;;;45.65;18.77;;;;;;;1.41;79.88;100784.78;1711013;84;22154;-82
2022/03/02 02:31:42;;;;;;;41.50;19.77;;;;;;;1.41;79.91;100784.33;1710652;84;20906;-82
2022/03/02 02:34:09;;;;;;;50.50;21.10;;;;;;;1.41;79.92;100782.19;1711672;83;21456;-81
2022/03/02 02:36:38;;;;;;;42.15;17.62;;;;;;;1.39;80.00;100774.89;1710955;84;21068;-81
2022/03/02 02:39:05;;;;;;;44.23;18.60;;;;;;;1.40;80.09;100775.28;1711700;83;21053;-81
2022/03/02 02:41:32;;;;;;;49.65;21.17;;;;;;;1.40;80.11;100782.63;1712150;83;21794;-82
2022/03/02 02:43:59;;;;;;;51.73;20.68;;;;;;;1.41;80.15;100771.77;1711230;83;20997;-82
2022/03/02 02:46:26;;;;;;;43.73;19.37;;;;;;;1.42;80.21;100768.27;1710846;84;21049;-82
2022/03/02 02:48:53;;;;;;;49.80;20.23;;;;;;;1.45;80.23;100761.67;1711933;83;20962;-82
2022/03/02 02:51:20;;;;;;;45.63;19.35;;;;;;;1.46;80.23;100765.12;1711335;84;20998;-81
2022/03/02 02:53:47;;;;;;;49.73;20.57;;;;;;;1.46;80.26;100765.12;1710818;84;21802;-81
2022/03/02 02:56:14;;;;;;;52.03;20.48;;;;;;;1.44;80.30;100749.53;1711042;83;20986;-82
2022/03/02 02:58:41;;;;;;;49.83;21.05;;;;;;;1.46;80.34;100756.86;1711594;83;21433;-82
2022/03/02 03:01:08;;;;;;;48.90;19.40;;;;;;;1.47;80.35;100750.74;1713192;83;20978;-81
2022/03/02 03:03:35;;;;;;;54.85;21.20;;;;;;;1.51;80.35;100751.02;1713467;82;21025;-81
2022/03/02 03:06:04;;;;;;;49.03;19.42;;;;;;;1.50;80.33;100749.32;1713157;82;20937;-81
2022/03/02 03:08:31;;;;;;;46.63;20.52;;;;;;;1.50;80.33;100748.02;1713232;82;21376;-81
2022/03/02 03:10:59;;;;;;;50.45;20.32;;;;;;;1.51;80.33;100743.20;1713241;83;21013;-81
2022/03/02 03:13:27;;;;;;;45.80;19.20;;;;;;;1.50;80.31;100738.91;1713193;82;21547;-81
2022/03/02 03:15:54;;;;;;;46.40;20.77;;;;;;;1.48;80.30;100738.13;1713319;83;20958;-81
2022/03/02 03:18:21;;;;;;;40.88;17.80;;;;;;;1.48;80.30;100744.63;1713338;83;22801;-81
2022/03/02 03:20:49;;;;;;;49.20;19.95;;;;;;;1.50;80.26;100736.76;1713087;83;21535;-82
2022/03/02 03:23:16;;;;;;;48.20;19.90;;;;;;;1.50;80.21;100740.66;1713465;83;21037;-82
2022/03/02 03:25:43;;;;;;;49.40;20.40;;;;;;;1.49;80.19;100732.01;1713367;82;20958;-81
2022/03/02 03:28:10;;;;;;;47.23;20.02;;;;;;;1.50;80.17;100738.06;1714179;83;21059;-80
2022/03/02 03:30:37;;;;;;;46.63;19.12;;;;;;;1.51;80.11;100735.40;1715373;83;21895;-79
2022/03/02 03:33:04;;;;;;;41.80;18.35;;;;;;;1.51;80.10;100734.55;1714891;83;20986;-82
2022/03/02 03:35:32;;;;;;;48.42;19.45;;;;;;;1.51;80.07;100731.49;1713098;83;21025;-82
2022/03/02 03:37:59;;;;;;;43.95;18.95;;;;;;;1.48;80.01;100731.61;1713329;83;21002;-82
2022/03/02 03:40:26;;;;;;;45.08;18.27;;;;;;;1.47;79.96;100730.38;1713158;83;21519;-82
2022/03/02 03:42:53;;;;;;;43.73;18.67;;;;;;;1.44;79.96;100727.41;1713059;82;22304;-82
2022/03/02 03:45:20;;;;;;;40.25;18.50;;;;;;;1.44;79.96;100731.31;1713029;83;21385;-82
2022/03/02 03:47:47;;;;;;;42.17;18.35;;;;;;;1.43;79.91;100723.11;1713082;83;20974;-82
2022/03/02 03:50:15;;;;;;;37.42;18.00;;;;;;;1.42;79.88;100721.41;1713012;82;20946;-82
2022/03/02 03:52:42;;;;;;;40.12;18.92;;;;;;;1.42;79.87;100720.11;1713348;82;20949;-82
2022/03/02 03:55:10;;;;;;;43.50;18.23;;;;;;;1.40;79.80;100714.97;1713039;83;22212;-82
2022/03/02 03:57:37;;;;;;;38.80;18.17;;;;;;;1.38;79.73;100711.58;1713263;83;20986;-82
2022/03/02 04:00:09;;;;;;;42.15;17.15;;;;;;;1.35;79.72;100713.00;1712955;83;20997;-80
2022/03/02 04:02:36;;;;;;;39.53;17.97;;;;;;;1.33;79.71;100704.83;1703384;83;21014;-80
2022/03/02 04:05:03;;;;;;;38.17;18.00;;;;;;;1.31;79.72;100707.48;1713104;82;20958;-80
2022/03/02 04:07:31;;;;;;;36.53;17.32;;;;;;;1.32;79.69;100716.14;1713026;82;21849;-81
2022/03/02 04:09:58;;;;;;;41.68;16.55;;;;;;;1.30;79.71;100711.45;1713288;82;21049;-81
2022/03/02 04:12:26;;;;;;;34.50;16.85;;;;;;;1.30;79.70;100708.39;1713155;83;20993;-80
2022/03/02 04:14:53;;;;;;;40.83;17.90;;;;;;;1.30;79.68;100703.64;1713381;82;21422;-80
2022/03/02 04:17:20;;;;;;;33.33;16.37;;;;;;;1.28;79.68;100698.50;1723222;82;20933;-75
2022/03/02 04:19:47;;;;;;;36.23;16.40;;;;;;;1.27;79.70;100696.81;1722374;82;21839;-84
2022/03/02 04:22:14;;;;;;;32.98;16.42;;;;;;;1.26;79.70;100696.87;1713168;82;20945;-78
2022/03/02 04:24:41;;;;;;;33.20;16.17;;;;;;;1.24;79.71;100693.45;1728625;81;20988;-76
2022/03/02 04:27:09;;;;;;;30.92;15.93;;;;;;;1.24;79.70;100697.34;1728903;82;20997;-80
2022/03/02 04:29:35;;;;;;;33.58;15.75;;;;;;;1.23;79.70;100695.20;1738665;82;21531;-80
2022/03/02 04:32:04;;;;;;;33.65;16.27;;;;;;;1.21;79.70;100689.66;1713336;81;21749;-80
2022/03/02 04:34:31;;;;;;;36.03;17.00;;;;;;;1.21;79.72;100692.27;1709581;82;21479;-81
2022/03/02 04:37:00;;;;;;;34.88;16.90;;;;;;;1.21;79.76;100692.27;1714531;82;20957;-75
2022/03/02 04:39:27;;;;;;;28.80;15.25;;;;;;;1.21;79.79;100688.36;1731404;80;21625;-75
2022/03/02 04:41:54;;;;;;;34.18;16.57;;;;;;;1.21;79.79;100689.20;1727744;82;20985;-72
2022/03/02 04:44:24;;;;;;;34.33;16.50;;;;;;;1.20;79.80;100690.57;1716272;82;21774;-74
2022/03/02 04:46:51;;;;;;;33.95;15.55;;;;;;;1.20;79.85;100688.81;1732278;82;20930;-76
2022/03/02 04:49:18;;;;;;;37.35;18.02;;;;;;;1.23;79.85;100687.84;1735351;81;21586;-73
2022/03/02 04:51:47;;;;;;;31.85;15.60;;;;;;;1.23;79.92;100689.15;1715698;82;21039;-73
2022/03/02 04:57:03;;;;;;;31.55;16.70;;;;;;;1.24;79.85;100689.09;1703160;83;22179;-72
2022/03/02 04:59:31;;;;;;;33.83;16.62;;;;;;;1.21;79.84;100684.45;1719379;82;20965;-74
2022/03/02 05:01:58;;;;;;;33.10;15.30;;;;;;;1.20;79.89;100687.97;1716498;81;20977;-73
2022/03/02 05:04:25;;;;;;;32.85;15.93;;;;;;;1.23;79.92;100682.64;1707747;82;21005;-71
2022/03/02 05:06:52;;;;;;;31.62;15.30;;;;;;;1.24;79.95;100685.64;1699705;82;21397;-75
2022/03/02 05:09:19;;;;;;;34.53;16.65;;;;;;;1.23;79.93;100683.49;1709560;82;21864;-77
2022/03/02 05:11:47;;;;;;;31.42;16.40;;;;;;;1.20;79.92;100683.61;1717587;82;21512;-74
2022/03/02 05:14:14;;;;;;;33.58;16.23;;;;;;;1.21;79.97;100680.55;1711507;83;21064;-74
2022/03/02 05:16:41;;;;;;;32.33;15.85;;;;;;;1.22;79.99;100684.40;1711572;83;20957;-74
2022/03/02 05:19:08;;;;;;;33.45;16.55;;;;;;;1.24;80.02;100681.28;1711291;83;21002;-74
2022/03/02 05:21:36;;;;;;;30.92;16.67;;;;;;;1.26;80.00;100676.05;1710921;83;22235;-74
2022/03/02 05:24:03;;;;;;;28.45;15.10;;;;;;;1.25;80.02;100680.38;1711987;83;21536;-74
2022/03/02 05:26:30;;;;;;;29.70;15.03;;;;;;;1.26;80.03;100682.10;1711072;83;21025;-74
2022/03/02 05:28:57;;;;;;;31.23;15.68;;;;;;;1.25;80.02;100676.92;1710396;84;20978;-74
2022/03/02 05:31:24;;;;;;;32.17;15.80;;;;;;;1.25;80.00;100686.03;1711032;84;21431;-74
2022/03/02 05:33:54;;;;;;;31.62;15.65;;;;;;;1.26;80.03;100683.86;1710764;84;22201;-74
2022/03/02 05:36:21;;;;;;;28.80;15.50;;;;;;;1.28;80.05;100682.04;1712127;83;20959;-73
2022/03/02 05:38:48;;;;;;;30.48;15.60;;;;;;;1.29;80.03;100677.23;1711658;83;21492;-74
2022/03/02 05:41:15;;;;;;;29.98;15.40;;;;;;;1.30;80.04;100672.42;1711727;82;20966;-74
2022/03/02 05:43:41;;;;;;;30.37;15.38;;;;;;;1.31;80.02;100672.81;1712898;83;20954;-74
2022/03/02 05:46:08;;;;;;;28.32;15.00;;;;;;;1.31;80.03;100665.01;1712121;83;22162;-74
2022/03/02 05:48:36;;;;;;;31.70;16.02;;;;;;;1.32;80.04;100662.80;1711879;83;21551;-75
2022/03/02 05:51:03;;;;;;;27.60;14.25;;;;;;;1.31;80.01;100662.41;1712585;83;20963;-75
2022/03/02 05:53:30;;;;;;;31.23;15.98;;;;;;;1.31;80.01;100661.10;1712928;83;21482;-73
2022/03/02 05:55:57;;;;;;;30.97;15.93;;;;;;;1.29;80.00;100659.86;1712475;83;21094;-74
2022/03/02 05:58:25;;;;;;;28.95;14.98;;;;;;;1.30;80.03;100660.25;1713866;83;22814;-74
2022/03/02 06:00:52;;;;;;;29.67;16.23;;;;;;;1.32;80.01;100660.19;1711216;83;20958;-75
2022/03/02 06:03:20;;;;;;;27.58;15.45;;;;;;;1.35;80.03;100662.67;1712357;83;21042;-74
2022/03/02 06:05:49;;;;;;;29.40;15.20;;;;;;;1.34;80.06;100652.72;1712526;82;21002;-75
2022/03/02 06:08:16;;;;;;;26.23;14.98;;;;;;;1.35;80.03;100653.14;1710677;82;20993;-74
2022/03/02 06:10:45;;;;;;;27.70;15.35;;;;;;;1.34;79.99;100650.57;1711691;83;22666;-75
2022/03/02 06:13:14;;;;;;;27.35;15.58;;;;;;;1.35;80.03;100648.36;1679290;83;20965;-75
2022/03/02 06:15:43;;;;;;;27.73;15.55;;;;;;;1.37;80.02;100655.69;1712797;83;21001;-75
2022/03/02 06:18:12;;;;;;;26.82;13.85;;;;;;;1.40;80.02;100653.80;1710662;84;20970;-74
2022/03/02 06:20:41;;;;;;;27.10;15.25;;;;;;;1.40;79.99;100641.25;1710631;84;21483;-73
2022/03/02 06:23:09;;;;;;;27.30;15.83;;;;;;;1.39;79.98;100641.70;1711883;83;21825;-74
2022/03/02 06:25:37;;;;;;;27.20;14.63;;;;;;;1.41;79.97;100649.45;1710711;84;21000;-74
2022/03/02 06:28:04;;;;;;;28.23;15.85;;;;;;;1.43;79.97;100651.53;1711187;84;21436;-74
2022/03/02 06:30:31;;;;;;;26.45;15.03;;;;;;;1.44;79.96;100654.08;1710786;84;20964;-74
2022/03/02 06:32:59;;;;;;;26.20;15.98;;;;;;;1.47;79.95;100645.78;1711473;83;21516;-74
2022/03/02 06:35:26;;;;;;;24.32;14.07;;;;;;;1.50;79.93;100653.01;1710760;84;21866;-74
2022/03/02 06:37:53;;;;;;;23.87;14.60;;;;;;;1.51;79.88;100653.40;1711749;83;20929;-74
2022/03/02 06:40:20;;;;;;;21.80;13.85;;;;;;;1.54;79.84;100648.52;1712617;83;20962;-74
2022/03/02 06:43:07;;;;;;;24.37;14.58;;;;;;;1.53;79.77;100649.44;1711876;83;20985;-74
2022/03/02 06:45:55;;;;;;;24.07;14.60;;;;;;;1.53;79.73;100648.98;1711793;83;20958;-74
2022/03/02 06:48:47;;;;;;;23.95;14.07;;;;;;;1.54;79.70;100647.22;1711766;82;22769;-74
2022/03/02 06:51:15;;;;;;;25.40;15.15;;;;;;;1.56;79.69;100654.09;1705917;83;21216;-74
2022/03/02 06:53:44;;;;;;;24.45;14.40;;;;;;;1.55;79.58;100647.19;1711097;84;21388;-74
2022/03/02 06:56:11;;;;;;;21.77;13.45;;;;;;;1.55;79.58;100641.14;1710792;84;21423;-74
2022/03/02 06:58:50;;;;;;;23.07;14.80;;;;;;;1.55;79.58;100643.73;1710889;82;20946;-75
2022/03/02 07:01:31;;;;;;;22.87;14.05;;;;;;;1.56;79.56;100646.28;1711508;83;22863;-74
2022/03/02 07:03:59;;;;;;;23.05;13.62;;;;;;;1.59;79.56;100644.85;1712659;83;21041;-74
2022/03/02 07:06:27;;;;;;;24.00;14.18;;;;;;;1.60;79.50;100644.40;1712773;83;21464;-75
2022/03/02 07:08:54;;;;;;;23.73;14.33;;;;;;;1.61;79.47;100638.28;1700663;84;20974;-74
2022/03/02 07:11:22;;;;;;;23.80;14.33;;;;;;;1.61;79.42;100640.88;1712269;82;20948;-75
2022/03/02 07:13:49;;;;;;;22.58;13.65;;;;;;;1.62;79.39;100642.58;1712727;83;21687;-75
2022/03/02 07:16:18;;;;;;;27.32;14.95;;;;;;;1.63;79.36;100648.17;1712576;83;21021;-75
2022/03/02 07:18:45;;;;;;;24.30;14.45;;;;;;;1.64;79.31;100645.54;1711745;83;21014;-75
2022/03/02 07:21:15;;;;;;;23.95;15.05;;;;;;;1.66;79.25;100645.48;1713001;83;21380;-74
2022/03/02 07:23:55;;;;;;;23.92;14.55;;;;;;;1.65;79.21;100644.63;1712667;83;21420;-74
2022/03/02 07:26:23;;;;;;;20.77;14.33;;;;;;;1.67;79.23;100636.30;1712238;83;22448;-74
2022/03/02 07:28:50;;;;;;;21.87;14.28;;;;;;;1.69;79.20;100635.78;1711562;83;20993;-75
2022/03/02 07:31:20;;;;;;;21.52;13.68;;;;;;;1.70;79.15;100635.33;1712746;82;21017;-74
2022/03/02 07:33:47;;;;;;;24.18;14.15;;;;;;;1.70;79.15;100638.77;1713317;83;21037;-76
2022/03/02 07:36:14;;;;;;;22.13;14.20;;;;;;;1.73;79.16;100632.59;1713379;83;20966;-75
2022/03/02 07:38:41;;;;;;;22.73;13.78;;;;;;;1.74;79.11;100635.62;1677998;84;21806;-76
2022/03/02 07:41:09;;;;;;;23.83;14.83;;;;;;;1.77;79.07;100630.73;1711534;82;21044;-75
2022/03/02 07:43:37;;;;;;;20.55;13.68;;;;;;;1.78;79.03;100629.83;1714606;83;21033;-74
2022/03/02 07:46:13;;;;;;;21.10;13.38;;;;;;;1.79;79.00;100632.36;1713764;83;20999;-75
2022/03/02 07:48:38;;;;;;;22.52;14.47;;;;;;;1.81;78.98;100625.79;1703376;83;21478;-75
2022/03/02 07:51:07;;;;;;;20.17;13.20;;;;;;;1.79;78.82;100621.10;1712336;83;21770;-74
2022/03/02 07:53:43;;;;;;;26.07;14.47;;;;;;;1.79;78.83;100621.10;1711922;82;20958;-74
2022/03/02 07:56:10;;;;;;;24.37;14.83;;;;;;;1.79;78.74;100628.91;1712057;83;21499;-74
2022/03/02 07:58:40;;;;;;;21.97;14.28;;;;;;;1.78;78.74;100625.92;1700554;83;21005;-74
2022/03/02 08:01:09;;;;;;;22.62;14.20;;;;;;;1.78;78.74;100620.26;1712693;83;20965;-74
2022/03/02 08:03:39;;;;;;;22.17;13.30;;;;;;;1.82;78.74;100623.58;1712837;83;22484;-74
2022/03/02 08:06:06;;;;;;;22.80;14.10;;;;;;;1.83;78.71;100621.36;1711336;83;20958;-74
2022/03/02 08:08:37;;;;;;;18.27;12.90;;;;;;;1.82;78.65;100617.06;1710743;84;20957;-74
2022/03/02 08:11:04;;;;;;;20.65;13.50;;;;;;;1.84;78.61;100617.42;1710790;83;20954;-74
2022/03/02 08:13:35;;;;;;;21.93;13.62;;;;;;;1.86;78.60;100615.59;1712901;82;21410;-75
2022/03/02 08:16:04;;;;;;;20.43;13.80;;;;;;;1.88;78.55;100610.33;1701174;83;22166;-75
2022/03/02 08:18:31;;;;;;;23.15;14.03;;;;;;;1.88;78.46;100605.96;1712270;83;21009;-75
2022/03/02 08:20:58;;;;;;;20.92;13.32;;;;;;;1.86;78.41;100605.18;1711466;82;21504;-74
2022/03/02 08:23:36;;;;;;;22.40;13.70;;;;;;;1.86;78.36;100606.94;1711556;83;20974;-75
2022/03/02 08:26:03;;;;;;;20.60;12.80;;;;;;;1.84;78.32;100599.65;1703743;83;21107;-75
2022/03/02 08:28:32;;;;;;;19.15;13.28;;;;;;;1.88;78.35;100598.60;1712876;83;21816;-75
2022/03/02 08:30:59;;;;;;;19.45;13.35;;;;;;;1.89;78.36;100595.08;1710986;83;22008;-75
2022/03/02 08:33:27;;;;;;;20.90;13.45;;;;;;;1.89;78.30;100598.53;1712635;83;21630;-75
2022/03/02 08:35:55;;;;;;;20.00;13.25;;;;;;;1.89;78.27;100595.93;1712855;83;20982;-75
2022/03/02 08:38:23;;;;;;;20.95;13.35;;;;;;;1.92;78.26;100597.55;1712549;83;20962;-74
2022/03/02 08:40:50;;;;;;;20.05;13.50;;;;;;;1.91;78.22;100587.59;1712516;83;21814;-74
2022/03/02 08:43:17;;;;;;;18.77;12.13;;;;;;;1.92;78.20;100591.05;1711668;83;21009;-74
2022/03/02 08:45:49;;;;;;;19.17;13.10;;;;;;;1.94;78.21;100589.25;1710814;84;20961;-73
2022/03/02 08:48:17;;;;;;;19.00;12.88;;;;;;;1.93;78.19;100587.10;1712868;84;21568;-75
2022/03/02 08:50:43;;;;;;;19.82;13.05;;;;;;;1.95;78.16;100585.73;1712628;83;20970;-73
2022/03/02 08:53:15;;;;;;;20.17;13.10;;;;;;;1.98;78.17;100584.30;1713117;83;22470;-73
2022/03/02 08:55:43;;;;;;;20.40;12.40;;;;;;;2.00;78.17;100578.56;1712852;83;20974;-74
2022/03/02 08:58:10;;;;;;;20.05;12.63;;;;;;;1.98;78.08;100579.94;1712573;83;20997;-75
2022/03/02 09:00:38;;;;;;;18.98;12.65;;;;;;;2.00;78.05;100582.47;1712421;83;21021;-74
2022/03/02 09:03:06;;;;;;;18.95;12.93;;;;;;;1.99;77.98;100583.38;1712518;82;20918;-75
2022/03/02 09:05:33;;;;;;;19.27;13.35;;;;;;;1.98;77.97;100576.02;1713101;82;22166;-74
2022/03/02 09:08:00;;;;;;;19.55;12.82;;;;;;;1.99;77.94;100586.84;1713002;83;21505;-74
2022/03/02 09:10:29;;;;;;;21.00;13.35;;;;;;;1.99;77.92;100581.62;1713320;83;21045;-75
2022/03/02 09:12:59;;;;;;;17.95;12.13;;;;;;;1.97;77.92;100576.94;1713724;83;20962;-75
2022/03/02 09:15:26;;;;;;;20.05;12.95;;;;;;;2.01;77.96;100580.25;1712991;83;21009;-74
2022/03/02 09:17:56;;;;;;;19.67;12.90;;;;;;;2.01;77.91;100578.95;1712651;82;21865;-74
2022/03/02 09:20:23;;;;;;;19.95;12.60;;;;;;;1.99;77.89;100577.72;1712601;83;20969;-73
2022/03/02 09:22:52;;;;;;;20.92;13.00;;;;;;;2.01;77.97;100570.67;1712419;83;20993;-74
2022/03/02 09:25:19;;;;;;;20.20;13.03;;;;;;;2.02;78.00;100568.92;1712135;83;21053;-74
2022/03/02 09:27:46;;;;;;;20.88;12.78;;;;;;;2.04;78.03;100564.52;1712082;83;21060;-74
2022/03/02 09:30:13;;;;;;;18.32;12.60;;;;;;;2.05;78.06;100568.81;1711614;83;21802;-74
2022/03/02 09:32:41;;;;;;;18.00;12.23;;;;;;;2.07;78.11;100564.38;1711889;83;21092;-74
2022/03/02 09:35:13;;;;;;;19.35;13.00;;;;;;;2.07;78.15;100557.02;1711478;83;20986;-74
2022/03/02 09:37:48;;;;;;;20.82;13.28;;;;;;;2.06;78.14;100556.63;1711634;83;21017;-74
2022/03/02 09:40:23;;;;;;;21.00;13.53;;;;;;;2.07;78.21;100547.91;1711178;83;21389;-73
2022/03/02 09:43:01;;;;;;;17.87;11.93;;;;;;;2.07;78.22;100546.60;1702955;83;21957;-74
2022/03/02 09:45:30;;;;;;;20.80;13.28;;;;;;;2.07;78.29;100543.54;1711157;82;21004;-73
2022/03/02 09:48:00;;;;;;;17.48;12.07;;;;;;;2.10;78.36;100534.28;1711655;83;21021;-73
2022/03/02 09:50:31;;;;;;;18.65;12.18;;;;;;;2.11;78.36;100525.55;1711309;83;21035;-73
2022/03/02 09:53:02;;;;;;;19.42;12.68;;;;;;;2.10;78.40;100521.25;1711880;83;21011;-73
2022/03/02 09:55:30;;;;;;;18.87;12.23;;;;;;;2.10;78.47;100519.11;1711577;82;21854;-74
2022/03/02 09:57:59;;;;;;;17.30;12.23;;;;;;;2.12;78.56;100519.88;1711788;82;21056;-73
2022/03/02 10:00:27;;;;;;;18.70;12.03;;;;;;;2.13;78.59;100514.63;1712145;83;20962;-74
2022/03/02 10:02:59;;;;;;;18.37;11.70;;;;;;;2.09;78.56;100511.75;1711615;83;20950;-74
2022/03/02 10:05:31;;;;;;;18.98;12.33;;;;;;;2.06;78.63;100505.37;1701449;83;21480;-74
2022/03/02 10:08:05;;;;;;;18.95;12.25;;;;;;;2.06;78.66;100498.02;1713381;82;21037;-74
2022/03/02 10:10:36;;;;;;;19.55;12.58;;;;;;;2.07;78.73;100500.55;1712997;82;21001;-74
2022/03/02 10:13:06;;;;;;;18.37;12.10;;;;;;;2.08;78.77;100493.12;1711724;83;20962;-75
2022/03/02 10:15:33;;;;;;;18.25;12.65;;;;;;;2.09;78.82;100493.97;1710695;84;20954;-74
2022/03/02 10:18:01;;;;;;;20.12;12.35;;;;;;;2.11;78.86;100486.47;1711662;83;21013;-75
2022/03/02 10:20:31;;;;;;;19.17;12.30;;;;;;;2.12;78.91;100486.86;1712284;82;21855;-75
2022/03/02 10:23:35;;;;;;;18.15;11.95;;;;;;;2.12;78.90;100482.95;1711214;82;21006;-75
2022/03/02 10:26:21;;;;;;;17.30;11.57;;;;;;;2.15;78.98;100477.63;1711738;83;20962;-74
2022/03/02 10:29:19;;;;;;;17.98;12.18;;;;;;;2.18;79.03;100466.22;1709385;84;21491;-74
2022/03/02 10:31:58;;;;;;;18.67;12.40;;;;;;;2.20;79.09;100462.62;1710792;82;21630;-75
2022/03/02 10:34:32;;;;;;;18.20;12.05;;;;;;;2.25;79.08;100459.38;1711038;84;21883;-74
2022/03/02 10:37:33;;;;;;;21.02;12.73;;;;;;;2.28;79.10;100455.32;1712304;83;21484;-73
2022/03/02 10:40:20;;;;;;;18.92;12.33;;;;;;;2.30;79.08;100454.79;1712025;83;21014;-74
2022/03/02 10:43:05;;;;;;;20.70;12.98;;;;;;;2.33;79.07;100443.86;1710682;83;20986;-74
2022/03/02 10:45:44;;;;;;;18.12;11.38;;;;;;;2.34;79.02;100446.86;1711745;83;21104;-74
2022/03/02 10:48:44;;;;;;;21.95;12.70;;;;;;;2.36;79.01;100441.95;1711693;83;21834;-74
2022/03/02 10:51:11;;;;;;;19.42;12.20;;;;;;;2.36;78.92;100440.66;1711804;83;20882;-74
2022/03/02 10:53:46;;;;;;;21.68;13.10;;;;;;;2.34;78.89;100441.64;1710579;84;21009;-73
2022/03/02 10:56:08;;;;;;;18.62;12.37;;;;;;;2.33;78.89;100436.89;1710834;83;20997;-75
2022/03/02 10:58:38;;;;;;;19.92;12.25;;;;;;;2.36;78.91;100431.99;1710656;83;21001;-75
2022/03/02 11:01:06;;;;;;;19.42;12.80;;;;;;;2.37;78.89;100425.86;1701286;83;22195;-74
2022/03/02 11:03:37;;;;;;;18.10;12.70;;;;;;;2.39;78.89;100429.23;1711301;83;20935;-74
2022/03/02 11:06:06;;;;;;;18.55;11.18;;;;;;;2.40;78.80;100423.11;1702426;83;21383;-74
2022/03/02 11:08:35;;;;;;;19.27;12.20;;;;;;;2.42;78.78;100422.14;1711392;83;21788;-74
2022/03/02 11:11:09;;;;;;;16.48;11.10;;;;;;;2.43;78.74;100413.87;1711166;83;21006;-75
2022/03/02 11:13:36;;;;;;;20.68;12.88;;;;;;;2.44;78.71;100403.83;1711821;83;22684;-74
2022/03/02 11:16:05;;;;;;;18.90;12.40;;;;;;;2.44;78.68;100403.83;1711153;83;20950;-74
2022/03/02 11:18:40;;;;;;;19.87;11.95;;;;;;;2.44;78.65;100396.84;1711496;83;20953;-74
2022/03/02 11:21:11;;;;;;;;;;;;;;;2.45;78.61;100400.30;1714083;83;21054;-75
2022/03/02 11:23:45;;;;;;;18.80;12.03;;;;;;;2.45;78.57;100397.23;1702859;83;20397;-75
2022/03/02 11:26:18;;;;;;;16.97;11.38;;;;;;;2.44;78.53;100398.61;1711903;83;21854;-74
2022/03/02 11:28:49;;;;;;;;;;;;;;;2.46;78.54;100398.08;1714325;83;21433;-74